Time;durP1;ratioP1;P1;durP2;ratioP2;P2;SDS_P1;SDS_P2;PMS_P1;PMS_P2;Temp;Humidity;BMP_temperature;BMP_pressure;BME280_temperature;BME280_humidity;BME280_pressure;Samples;Min_cycle;Max_cycle;Signal;HPM_P1;HPM_P2
2022/12/09 00:00:31;;;;;;;10.45;5.32;;;;;;;10.47;100.00;98004.78;5095116;28;20094;-92
2022/12/09 00:02:57;;;;;;;11.75;6.35;;;;;;;10.47;99.23;97991.47;5095494;28;20040;-91
2022/12/09 00:05:24;;;;;;;10.43;7.30;;;;;;;10.45;98.13;97979.16;5094301;28;20036;-92
2022/12/09 00:07:50;;;;;;;10.93;5.97;;;;;;;10.68;97.52;98000.38;5093185;28;20101;-93
2022/12/09 00:10:18;;;;;;;9.07;5.57;;;;;;;10.77;96.35;98008.94;5095266;28;20043;-93
2022/12/09 00:12:44;;;;;;;10.60;6.03;;;;;;;10.66;96.44;97977.44;5094977;28;20032;-92
2022/12/09 00:15:10;;;;;;;9.70;5.82;;;;;;;10.67;96.47;97973.88;5093651;28;20515;-92
2022/12/09 00:17:41;;;;;;;12.95;5.00;;;;;;;10.68;97.95;97970.28;5095023;28;20047;-93
2022/12/09 00:20:11;;;;;;;7.47;5.45;;;;;;;10.61;98.26;97959.03;5095020;28;20497;-93
2022/12/09 00:22:37;;;;;;;7.72;4.97;;;;;;;10.52;98.93;97954.09;5094519;28;20036;-93
2022/12/09 00:25:05;;;;;;;8.55;4.72;;;;;;;10.49;98.73;97954.19;5094829;28;20439;-91
2022/12/09 00:27:31;;;;;;;8.37;4.90;;;;;;;10.48;98.52;97957.78;5095043;28;20043;-93
2022/12/09 00:29:57;;;;;;;8.57;5.50;;;;;;;10.48;98.02;97963.97;5094773;28;20484;-91
2022/12/09 00:32:23;;;;;;;8.48;5.05;;;;;;;10.55;97.21;97967.25;5094357;28;20097;-90
2022/12/09 00:34:53;;;;;;;8.23;5.00;;;;;;;10.61;96.73;97974.97;5095193;28;20050;-91
2022/12/09 00:37:19;;;;;;;10.25;5.32;;;;;;;10.62;96.16;97955.41;5094734;28;20035;-91
2022/12/09 00:39:45;;;;;;;6.95;4.68;;;;;;;10.54;96.43;97946.03;5094612;28;20070;-92
2022/12/09 00:42:11;;;;;;;7.63;4.95;;;;;;;10.61;96.77;97960.81;5093253;28;20024;-93
2022/12/09 00:44:37;;;;;;;8.13;4.75;;;;;;;10.80;94.32;97984.84;5094383;28;20503;-92
2022/12/09 00:47:03;;;;;;;11.20;4.70;;;;;;;10.74;95.21;97978.00;5091340;28;20500;-93
2022/12/09 00:49:35;;;;;;;6.72;4.18;;;;;;;10.74;94.17;97970.03;5093795;28;20142;-92
2022/12/09 00:52:02;;;;;;;8.82;4.65;;;;;;;10.59;94.21;97942.25;5093692;28;20032;-90
2022/12/09 00:54:28;;;;;;;6.22;4.47;;;;;;;10.61;95.05;97940.41;5094122;28;20091;-91
2022/12/09 00:56:55;;;;;;;11.80;5.18;;;;;;;10.63;94.79;97945.69;5094267;28;20036;-92
2022/12/09 00:59:21;;;;;;;9.00;4.15;;;;;;;10.67;95.18;97960.59;5093810;28;20040;-91
2022/12/09 01:01:47;;;;;;;6.78;4.07;;;;;;;10.67;95.36;97968.56;5092927;28;20118;-91
2022/12/09 01:04:16;;;;;;;8.80;4.57;;;;;;;10.46;95.78;97931.25;5093763;28;20132;-93
2022/12/09 01:06:43;;;;;;;6.65;4.30;;;;;;;10.66;96.42;97958.84;5093903;28;20873;-93
2022/12/09 01:09:13;;;;;;;10.88;4.40;;;;;;;10.41;96.61;97924.38;5094240;28;20043;-91
2022/12/09 01:11:39;;;;;;;7.53;4.30;;;;;;;10.55;96.04;97948.63;5094023;28;20054;-91
2022/12/09 01:14:05;;;;;;;7.43;4.13;;;;;;;10.60;95.57;97946.63;5093908;28;20123;-93
2022/12/09 01:16:36;;;;;;;7.30;3.70;;;;;;;10.76;95.52;97970.84;5093554;28;20036;-91
2022/12/09 01:19:06;;;;;;;7.65;4.15;;;;;;;10.61;95.30;97923.59;5093417;28;20059;-93
2022/12/09 01:21:33;;;;;;;8.30;4.35;;;;;;;10.71;94.84;97943.53;5093591;28;20039;-92
2022/12/09 01:24:07;;;;;;;6.53;4.07;;;;;;;10.73;93.80;97938.19;5093843;28;20077;-91
2022/12/09 01:26:38;;;;;;;8.30;4.15;;;;;;;10.67;94.20;97923.34;5094108;28;20048;-92
2022/12/09 01:29:03;;;;;;;9.25;4.10;;;;;;;10.68;94.50;97914.44;5093867;28;20036;-91
2022/12/09 01:31:29;;;;;;;7.47;4.05;;;;;;;10.66;96.02;97910.97;5092141;28;20043;-93
2022/12/09 01:33:56;;;;;;;7.38;4.15;;;;;;;10.87;96.13;97949.13;5093295;28;20123;-92
2022/12/09 01:36:25;;;;;;;7.28;3.78;;;;;;;10.65;96.17;97920.75;5092810;28;20044;-91
2022/12/09 01:38:51;;;;;;;;;;;;;;;10.88;96.62;97957.00;5093899;28;20043;-93
2022/12/09 01:41:20;;;;;;;10.20;4.38;;;;;;;10.82;96.43;97941.34;5094460;28;19920;-92
2022/12/09 01:44:27;;;;;;;7.80;4.30;;;;;;;10.68;96.57;97901.16;5093321;28;20044;-92
2022/12/09 01:46:56;;;;;;;6.70;4.00;;;;;;;10.85;96.78;97922.56;5073096;28;20052;-92
2022/12/09 01:49:26;;;;;;;5.82;3.97;;;;;;;10.84;96.34;97910.22;5259372;22;20057;-92
2022/12/09 01:52:02;;;;;;;6.07;3.75;;;;;;;10.85;96.80;97924.38;5045026;28;20490;-91
2022/12/09 01:54:29;;;;;;;8.10;4.13;;;;;;;10.84;96.61;97907.56;5045464;28;20040;-93
2022/12/09 01:56:55;;;;;;;9.43;4.28;;;;;;;10.66;96.34;97879.94;5040780;28;20043;-93
2022/12/09 01:59:25;;;;;;;6.28;3.95;;;;;;;10.77;96.63;97898.09;5040918;28;20108;-93
2022/12/09 02:01:56;;;;;;;8.55;4.60;;;;;;;10.79;96.53;97898.91;5039622;28;20578;-92
2022/12/09 02:04:22;;;;;;;12.07;5.55;;;;;;;10.74;95.97;97882.28;5044597;28;20417;-93
2022/12/09 02:06:51;;;;;;;10.20;4.78;;;;;;;10.82;94.90;97887.25;5048019;28;20037;-93
2022/12/09 02:09:17;;;;;;;11.07;4.78;;;;;;;10.81;95.24;97873.09;5048121;28;20045;-92
2022/12/09 02:11:55;;;;;;;6.53;4.30;;;;;;;10.82;95.58;97874.84;5041794;28;20387;-92
2022/12/09 02:14:26;;;;;;;8.27;4.13;;;;;;;10.98;95.66;97892.81;5042518;28;20144;-91
2022/12/09 02:17:04;;;;;;;9.27;4.55;;;;;;;10.75;95.84;97854.75;5042806;28;20033;-91
2022/12/09 02:19:47;;;;;;;8.88;4.35;;;;;;;10.93;96.05;97881.47;5043484;28;20133;-91
2022/12/09 02:22:20;;;;;;;5.80;3.92;;;;;;;11.03;95.98;97881.03;5044864;28;20033;-91
2022/12/09 02:24:53;;;;;;;7.93;4.28;;;;;;;11.05;95.85;97879.16;5044851;28;20041;-91
2022/12/09 02:27:28;;;;;;;8.13;4.18;;;;;;;11.01;96.39;97871.38;5042795;28;20051;-92
2022/12/09 02:30:07;;;;;;;7.65;3.97;;;;;;;10.90;96.29;97845.25;5047050;28;20163;-91
2022/12/09 02:33:10;;;;;;;6.50;3.67;;;;;;;10.97;96.65;97856.47;5053200;28;20044;-91
2022/12/09 02:35:41;;;;;;;6.18;3.78;;;;;;;11.09;97.04;97869.25;5045045;28;20037;-93
2022/12/09 02:38:16;;;;;;;11.20;4.28;;;;;;;10.99;96.90;97851.97;5046354;28;20504;-92
2022/12/09 02:40:47;;;;;;;9.52;4.25;;;;;;;11.11;97.22;97859.41;5046035;28;20491;-92
2022/12/09 02:43:21;;;;;;;9.25;4.25;;;;;;;10.97;97.10;97840.53;5048352;28;20052;-92
2022/12/09 02:45:50;;;;;;;8.82;4.35;;;;;;;10.98;96.85;97836.94;5049719;28;20042;-92
2022/12/09 02:48:19;;;;;;;;;;;;;;;11.18;96.70;97857.34;5047013;28;20160;-91
2022/12/09 02:50:51;;;;;;;7.45;4.10;;;;;;;11.00;97.62;97819.13;5046415;28;20417;-92
2022/12/09 02:53:18;;;;;;;7.25;3.63;;;;;;;11.13;97.34;97832.75;5047986;28;20041;-92
2022/12/09 02:55:50;;;;;;;6.70;3.90;;;;;;;11.19;97.63;97846.66;5048545;28;20124;-92
2022/12/09 02:58:16;;;;;;;8.35;3.95;;;;;;;11.18;98.05;97842.25;5046356;28;20107;-91
2022/12/09 03:00:42;;;;;;;7.20;3.70;;;;;;;10.96;98.25;97802.44;5047532;28;20041;-91
2022/12/09 03:03:16;;;;;;;9.15;4.10;;;;;;;10.90;98.71;97787.59;5045559;28;20028;-91
2022/12/09 03:05:48;;;;;;;7.97;4.00;;;;;;;10.98;99.55;97807.69;5046314;28;20062;-91
2022/12/09 03:08:27;;;;;;;7.53;4.00;;;;;;;10.95;100.00;97802.47;5046353;28;20097;-92
2022/12/09 03:10:56;;;;;;;6.45;3.60;;;;;;;10.87;100.00;97793.06;5045009;28;20024;-92
2022/12/09 03:13:39;;;;;;;6.07;3.72;;;;;;;10.82;100.00;97792.41;5039575;28;20136;-92
2022/12/09 03:16:10;;;;;;;7.43;4.57;;;;;;;10.84;100.00;97787.88;5048872;28;20050;-93
2022/12/09 03:18:41;;;;;;;8.73;4.20;;;;;;;10.79;100.00;97789.88;5045474;28;20159;-92
2022/12/09 03:21:07;;;;;;;8.93;4.38;;;;;;;10.88;100.00;97824.03;5047225;28;20049;-93
2022/12/09 03:23:37;;;;;;;6.90;3.90;;;;;;;10.76;100.00;97795.31;5046055;28;20048;-92
2022/12/09 03:26:08;;;;;;;9.35;4.00;;;;;;;10.75;100.00;97798.91;5045596;28;20454;-92
2022/12/09 03:28:39;;;;;;;8.25;4.57;;;;;;;10.88;100.00;97813.38;5048260;28;20487;-94
2022/12/09 03:31:12;;;;;;;7.70;4.15;;;;;;;10.93;100.00;97807.91;5040128;28;21428;-92
2022/12/09 03:33:40;;;;;;;8.45;4.35;;;;;;;10.95;100.00;97802.47;5047731;28;20043;-92
2022/12/09 03:36:09;;;;;;;6.40;4.10;;;;;;;10.92;100.00;97786.66;5044090;28;20099;-93
2022/12/09 03:38:40;;;;;;;8.15;4.13;;;;;;;10.86;100.00;97778.03;5044858;28;20065;-91
2022/12/09 03:41:12;;;;;;;8.98;4.18;;;;;;;11.13;100.00;97812.31;5043521;28;20065;-93
2022/12/09 03:43:46;;;;;;;8.95;4.15;;;;;;;11.12;100.00;97799.94;5049546;28;20037;-92
2022/12/09 03:46:13;;;;;;;10.98;4.72;;;;;;;11.22;100.00;97800.41;5043491;28;20037;-92
2022/12/09 03:48:39;;;;;;;10.05;4.30;;;;;;;11.22;100.00;97779.13;5043254;28;20042;-92
2022/12/09 03:51:09;;;;;;;8.88;5.00;;;;;;;11.34;100.00;97797.16;5046045;28;20041;-91
2022/12/09 03:53:42;;;;;;;10.38;4.50;;;;;;;11.20;100.00;97786.31;5042760;28;20372;-93
2022/12/09 03:56:13;;;;;;;17.80;5.53;;;;;;;11.45;100.00;97807.31;5046796;28;20051;-92
2022/12/09 03:58:43;;;;;;;10.57;4.80;;;;;;;11.49;100.00;97804.47;5053818;28;20048;-92
2022/12/09 04:01:10;;;;;;;11.63;5.15;;;;;;;11.36;100.00;97770.50;5042685;28;20128;-92
2022/12/09 04:03:37;;;;;;;10.07;5.15;;;;;;;11.57;100.00;97812.09;5045591;28;20375;-92
2022/12/09 04:06:03;;;;;;;10.82;4.70;;;;;;;11.40;100.00;97780.06;5047133;28;20041;-90
2022/12/09 04:08:29;;;;;;;9.95;5.32;;;;;;;11.61;100.00;97807.50;5048345;28;20053;-93
2022/12/09 04:10:56;;;;;;;9.90;4.70;;;;;;;11.35;100.00;97779.41;5046276;28;20017;-92
2022/12/09 04:13:22;;;;;;;14.38;5.35;;;;;;;11.52;100.00;97793.66;5048447;28;20061;-92
2022/12/09 04:15:48;;;;;;;12.65;5.15;;;;;;;11.54;100.00;97788.28;5044819;28;20041;-90
2022/12/09 04:18:14;;;;;;;12.73;5.50;;;;;;;11.54;100.00;97777.63;5042866;28;20397;-91
2022/12/09 04:20:40;;;;;;;16.05;5.70;;;;;;;11.63;100.00;97790.50;5043847;28;20455;-91
2022/12/09 04:23:08;;;;;;;13.38;6.03;;;;;;;11.57;100.00;97782.81;5044629;28;20394;-93
2022/12/09 04:25:36;;;;;;;16.13;7.20;;;;;;;11.68;100.00;97807.13;5046563;28;20570;-92
2022/12/09 04:28:03;;;;;;;17.15;6.65;;;;;;;11.67;100.00;97805.41;5042004;28;20137;-92
2022/12/09 04:30:32;;;;;;;16.08;6.45;;;;;;;11.58;100.00;97805.84;5045946;28;20045;-93
2022/12/09 04:33:01;;;;;;;14.95;7.53;;;;;;;11.39;100.00;97770.38;5043763;28;20087;-93
2022/12/09 04:35:29;;;;;;;14.57;6.47;;;;;;;11.51;100.00;97791.06;5045683;28;20037;-94
2022/12/09 04:37:57;;;;;;;23.40;8.77;;;;;;;11.37;100.00;97769.56;5044418;28;20048;-92
2022/12/09 04:40:26;;;;;;;19.37;7.50;;;;;;;11.40;100.00;97774.72;5039476;28;20052;-93
2022/12/09 04:42:53;;;;;;;17.48;7.20;;;;;;;11.50;100.00;97797.34;5044235;28;20336;-95
2022/12/09 04:45:21;;;;;;;23.45;8.45;;;;;;;11.37;100.00;97764.25;5044685;28;20080;-92
2022/12/09 04:47:49;;;;;;;22.88;8.07;;;;;;;11.45;100.00;97770.06;5049172;28;20482;-92
2022/12/09 04:50:16;;;;;;;19.55;7.68;;;;;;;11.55;100.00;97774.03;5047027;28;20080;-94
2022/12/09 04:53:05;;;;;;;19.42;8.10;;;;;;;11.38;100.00;97737.53;5042235;28;20049;-89
2022/12/09 04:55:30;;;;;;;;;;;;;;;11.62;100.00;97771.94;5034844;28;20041;-92
2022/12/09 04:58:04;;;;;;;26.83;7.97;;;;;;;11.69;100.00;97755.59;5045810;28;20217;-90
2022/12/09 05:00:52;;;;;;;24.08;7.32;;;;;;;11.58;100.00;97715.31;5046809;28;20112;-92
2022/12/09 05:03:18;;;;;;;20.58;8.15;;;;;;;11.89;100.00;97754.66;5048947;28;20041;-93
2022/12/09 05:05:50;;;;;;;24.08;8.95;;;;;;;11.81;100.00;97739.97;5044668;28;20041;-92
2022/12/09 05:08:31;;;;;;;35.05;9.38;;;;;;;11.90;100.00;97734.22;5044567;28;20116;-90
2022/12/09 05:11:02;;;;;;;27.57;9.07;;;;;;;11.73;100.00;97689.72;5042726;28;20128;-92
2022/12/09 05:13:48;;;;;;;29.77;9.25;;;;;;;11.82;100.00;97688.41;5049064;28;20041;-90
2022/12/09 05:16:17;;;;;;;26.67;9.25;;;;;;;12.00;100.00;97692.00;5042011;28;20036;-92
2022/12/09 05:18:44;;;;;;;29.43;9.53;;;;;;;11.81;100.00;97666.22;5044517;28;20046;-93
2022/12/09 05:21:19;;;;;;;19.17;7.85;;;;;;;11.95;100.00;97694.00;5040479;28;20053;-91
2022/12/09 05:23:55;;;;;;;30.67;7.70;;;;;;;12.09;100.00;97704.84;5043703;28;20071;-92
2022/12/09 05:26:22;;;;;;;26.17;8.15;;;;;;;11.87;100.00;97665.94;5045763;28;20047;-92
2022/12/09 05:28:51;;;;;;;27.42;8.50;;;;;;;11.88;100.00;97670.38;5046125;28;20457;-91
2022/12/09 05:31:26;;;;;;;23.80;8.40;;;;;;;11.98;100.00;97686.75;5042932;28;20065;-94
2022/12/09 05:33:52;;;;;;;30.42;8.55;;;;;;;12.11;100.00;97709.16;5046144;28;20037;-94
2022/12/09 05:36:23;;;;;;;;;;;;;;;12.18;100.00;97711.53;5042331;28;20404;-91
2022/12/09 05:38:50;;;;;;;20.92;7.30;;;;;;;12.08;100.00;97693.34;5045814;28;19920;-91
2022/12/09 05:41:24;;;;;;;21.90;8.20;;;;;;;11.93;100.00;97670.13;5050811;28;20075;-90
2022/12/09 05:44:56;;;;;;;21.95;8.02;;;;;;;12.17;100.00;97694.69;5042431;28;20045;-91
2022/12/09 05:47:19;;;;;;;34.97;9.07;;;;;;;11.97;100.00;97649.50;5018608;28;20084;-92
2022/12/09 05:50:06;;;;;;;26.00;8.15;;;;;;;12.23;100.00;97682.81;5038097;28;20041;-91
2022/12/09 05:52:34;;;;;;;27.98;9.35;;;;;;;12.05;100.00;97660.66;5044103;28;20136;-91
2022/12/09 05:55:03;;;;;;;26.02;7.72;;;;;;;12.30;100.00;97689.59;5044373;28;20037;-92
2022/12/09 05:57:28;;;;;;;32.58;8.25;;;;;;;12.22;100.00;97684.63;5041273;28;20049;-91
2022/12/09 05:59:54;;;;;;;26.70;9.02;;;;;;;12.26;100.00;97688.03;5043557;28;20048;-93
2022/12/09 06:02:22;;;;;;;30.67;8.85;;;;;;;12.21;100.00;97680.25;5042704;28;20051;-93
2022/12/09 06:04:48;;;;;;;28.52;7.82;;;;;;;12.31;100.00;97693.97;5049065;28;20141;-92
2022/12/09 06:07:14;;;;;;;23.50;8.32;;;;;;;12.31;100.00;97689.50;5044776;28;20502;-91
2022/12/09 06:09:39;;;;;;;27.08;8.32;;;;;;;12.06;100.00;97646.41;5045961;28;20091;-92
2022/12/09 06:12:06;;;;;;;24.40;8.77;;;;;;;12.19;100.00;97662.59;5047328;28;20052;-91
2022/12/09 06:14:32;;;;;;;24.10;8.02;;;;;;;12.31;100.00;97688.63;5047799;28;20047;-91
2022/12/09 06:16:58;;;;;;;20.33;8.10;;;;;;;12.45;100.00;97709.28;5043726;28;20119;-91
2022/12/09 06:19:25;;;;;;;23.08;8.75;;;;;;;12.31;100.00;97691.28;5049417;28;20132;-92
2022/12/09 06:21:51;;;;;;;24.13;8.98;;;;;;;12.28;100.00;97688.81;5046282;28;20513;-92
2022/12/09 06:24:17;;;;;;;24.30;7.72;;;;;;;12.41;100.00;97708.56;5047895;28;20038;-91
2022/12/09 06:26:48;;;;;;;27.83;7.68;;;;;;;12.21;100.00;97674.03;5046006;28;20020;-94
2022/12/09 06:29:16;;;;;;;28.63;8.18;;;;;;;12.43;100.00;97706.69;5044023;28;20037;-92
2022/12/09 06:31:42;;;;;;;25.37;8.03;;;;;;;12.44;100.00;97697.72;5052413;28;20535;-92
2022/12/09 06:34:08;;;;;;;28.77;8.07;;;;;;;12.40;100.00;97677.47;5047987;28;20049;-92
2022/12/09 06:36:35;;;;;;;20.48;7.75;;;;;;;12.43;100.00;97673.81;5046311;28;20098;-91
2022/12/09 06:39:03;;;;;;;25.88;8.10;;;;;;;12.50;100.00;97686.75;5049331;28;20037;-90
2022/12/09 06:41:32;;;;;;;18.25;7.53;;;;;;;12.50;100.00;97676.06;5047036;28;20482;-90
2022/12/09 06:44:06;;;;;;;28.27;8.00;;;;;;;12.38;100.00;97655.38;5047817;28;20386;-92
2022/12/09 06:46:31;;;;;;;19.75;7.80;;;;;;;12.45;100.00;97658.63;5043957;28;20045;-92
2022/12/09 06:48:57;;;;;;;25.40;8.52;;;;;;;12.47;100.00;97640.69;5048025;28;20049;-94
2022/12/09 06:51:24;;;;;;;22.05;8.00;;;;;;;12.56;100.00;97658.03;5051529;28;20033;-91
2022/12/09 06:53:52;;;;;;;22.35;7.78;;;;;;;12.53;100.00;97656.38;5048038;28;20060;-91
2022/12/09 06:56:18;;;;;;;20.77;8.05;;;;;;;12.52;100.00;97660.84;5046853;28;20037;-90
2022/12/09 06:58:45;;;;;;;24.15;8.43;;;;;;;12.44;100.00;97631.06;5049513;28;20061;-93
2022/12/09 07:01:16;;;;;;;28.33;8.32;;;;;;;12.67;100.00;97661.00;5047556;28;20048;-92
2022/12/09 07:03:45;;;;;;;23.88;8.05;;;;;;;12.69;100.00;97654.63;5045155;28;20071;-93
2022/12/09 07:06:19;;;;;;;30.73;7.63;;;;;;;12.66;100.00;97643.25;5044739;28;20041;-92
2022/12/09 07:08:50;;;;;;;22.40;7.65;;;;;;;12.62;100.00;97639.03;5048517;28;20045;-93
2022/12/09 07:11:20;;;;;;;22.05;7.88;;;;;;;12.60;100.00;97627.56;5041758;28;20041;-92
2022/12/09 07:13:46;;;;;;;23.88;7.22;;;;;;;12.82;100.00;97657.50;5049563;28;20179;-93
2022/12/09 07:16:12;;;;;;;23.00;7.00;;;;;;;12.73;100.00;97645.53;5047663;28;20038;-92
2022/12/09 07:18:38;;;;;;;18.77;7.28;;;;;;;12.65;100.00;97626.41;5046524;28;20052;-92
2022/12/09 07:21:08;;;;;;;21.75;8.10;;;;;;;12.84;100.00;97649.44;5044110;28;20076;-94
2022/12/09 07:23:36;;;;;;;22.00;7.13;;;;;;;12.74;100.00;97638.38;5042073;28;20091;-94
2022/12/09 07:26:05;;;;;;;18.38;6.47;;;;;;;12.83;100.00;97656.56;5048804;28;20056;-93
2022/12/09 07:28:34;;;;;;;23.50;7.03;;;;;;;12.80;100.00;97635.38;5051930;28;20033;-94
2022/12/09 07:31:00;;;;;;;23.42;7.55;;;;;;;13.00;100.00;97665.47;5048614;28;20098;-92
2022/12/09 07:33:27;;;;;;;22.90;6.60;;;;;;;13.01;100.00;97660.03;5048892;28;20115;-94
2022/12/09 07:35:54;;;;;;;22.65;6.80;;;;;;;12.93;100.00;97632.91;5048976;28;20102;-92
2022/12/09 07:38:26;;;;;;;25.85;6.60;;;;;;;12.98;100.00;97638.00;5045449;28;20042;-92
2022/12/09 07:40:52;;;;;;;22.25;7.22;;;;;;;12.97;100.00;97637.13;5051157;28;20033;-92
2022/12/09 07:43:18;;;;;;;22.80;7.57;;;;;;;12.97;100.00;97641.59;5038571;28;20049;-91
2022/12/09 07:45:45;;;;;;;26.13;7.53;;;;;;;12.87;100.00;97619.91;5043693;28;20532;-92
2022/12/09 07:48:18;;;;;;;25.05;8.88;;;;;;;12.84;100.00;97617.41;5046880;28;20041;-93
2022/12/09 07:50:44;;;;;;;17.15;7.45;;;;;;;12.88;100.00;97614.50;5043945;28;20043;-92
2022/12/09 07:53:10;;;;;;;25.65;7.38;;;;;;;12.89;100.00;97602.84;5057431;28;20120;-92
2022/12/09 07:55:41;;;;;;;21.60;7.38;;;;;;;12.92;100.00;97607.16;5050568;28;20481;-92
2022/12/09 07:58:09;;;;;;;30.13;7.93;;;;;;;12.94;100.00;97619.47;5052828;28;20037;-95
2022/12/09 08:00:35;;;;;;;26.48;7.80;;;;;;;13.17;100.00;97649.38;5054508;28;20092;-94
2022/12/09 08:03:05;;;;;;;23.30;7.10;;;;;;;12.92;100.00;97609.81;5046278;28;20050;-92
2022/12/09 08:05:32;;;;;;;23.25;7.05;;;;;;;13.23;100.00;97645.47;5050490;28;20033;-95
2022/12/09 08:07:57;;;;;;;29.35;7.40;;;;;;;13.01;100.00;97616.47;5050998;28;20044;-93
2022/12/09 08:10:23;;;;;;;17.70;6.75;;;;;;;13.03;100.00;97609.22;5046624;28;20045;-92
2022/12/09 08:12:54;;;;;;;20.58;6.35;;;;;;;13.13;100.00;97627.31;5050654;28;20437;-93
2022/12/09 08:15:30;;;;;;;23.52;6.70;;;;;;;13.12;100.00;97612.28;5044407;28;20042;-94
2022/12/09 08:17:55;;;;;;;21.98;7.40;;;;;;;13.22;100.00;97625.09;5041928;28;20042;-92
2022/12/09 08:20:26;;;;;;;16.38;7.05;;;;;;;13.26;100.00;97623.97;5045747;28;20553;-92
2022/12/09 08:22:52;;;;;;;17.25;6.15;;;;;;;13.12;100.00;97614.94;5045214;28;20128;-92
2022/12/09 08:25:20;;;;;;;18.55;6.75;;;;;;;13.06;100.00;97617.09;5046013;28;20572;-93
2022/12/09 08:27:47;;;;;;;18.58;7.35;;;;;;;13.14;100.00;97628.19;5044527;28;20045;-91
2022/12/09 08:30:13;;;;;;;24.50;6.80;;;;;;;13.05;100.00;97602.00;5050416;28;20465;-94
2022/12/09 08:32:39;;;;;;;23.90;6.90;;;;;;;13.09;100.00;97600.88;5044861;28;20486;-95
2022/12/09 08:35:06;;;;;;;19.25;6.80;;;;;;;13.21;100.00;97626.06;5047277;28;20047;-91
2022/12/09 08:37:35;;;;;;;20.23;6.45;;;;;;;13.31;99.94;97619.25;5044162;28;20041;-93
2022/12/09 08:40:01;;;;;;;19.15;6.35;;;;;;;13.30;100.00;97621.06;5074295;28;20405;-94
2022/12/09 08:42:30;;;;;;;19.10;7.60;;;;;;;13.28;100.00;97614.06;5044690;28;20048;-93
2022/12/09 08:44:56;;;;;;;16.80;6.00;;;;;;;13.49;99.65;97633.41;5045740;28;20044;-94
2022/12/09 08:47:26;;;;;;;15.80;6.07;;;;;;;13.31;99.37;97601.41;5046559;28;20025;-93
2022/12/09 08:49:58;;;;;;;12.80;5.85;;;;;;;13.41;99.59;97623.13;5047466;28;20073;-92
2022/12/09 08:52:26;;;;;;;18.73;6.13;;;;;;;13.33;99.01;97593.34;5045988;28;20053;-93
2022/12/09 08:54:56;;;;;;;19.75;6.40;;;;;;;13.56;97.96;97613.38;5051195;28;20483;-93
2022/12/09 08:57:27;;;;;;;21.55;6.22;;;;;;;13.43;98.48;97589.19;5045472;28;20045;-91
2022/12/09 08:59:53;;;;;;;23.40;5.97;;;;;;;13.45;98.12;97581.97;5051667;28;20481;-93
2022/12/09 09:02:19;;;;;;;18.23;6.57;;;;;;;13.74;97.93;97612.31;5045609;28;20128;-94
2022/12/09 09:04:45;;;;;;;16.30;6.28;;;;;;;13.50;98.23;97571.84;5042271;28;20059;-92
2022/12/09 09:07:11;;;;;;;25.73;6.47;;;;;;;13.65;98.71;97604.84;5044133;28;20049;-93
2022/12/09 09:09:38;;;;;;;26.38;6.95;;;;;;;13.47;98.54;97582.72;5047885;28;20037;-93
2022/12/09 09:12:06;;;;;;;19.85;7.43;;;;;;;13.68;98.59;97614.47;5050602;28;20041;-91
2022/12/09 09:14:34;;;;;;;19.88;6.85;;;;;;;13.61;98.49;97605.97;5046902;28;20542;-94
2022/12/09 09:17:02;;;;;;;17.13;6.72;;;;;;;13.72;99.09;97616.88;5043403;28;20064;-92
2022/12/09 09:19:31;;;;;;;16.60;6.18;;;;;;;13.54;99.38;97586.75;5048851;28;20041;-93
2022/12/09 09:21:57;;;;;;;16.57;6.40;;;;;;;13.59;98.35;97578.47;5048296;28;20041;-92
2022/12/09 09:24:24;;;;;;;21.63;6.90;;;;;;;13.53;98.98;97562.81;5047509;28;20670;-94
2022/12/09 09:26:52;;;;;;;15.80;6.47;;;;;;;13.69;99.30;97582.34;5041757;28;20056;-94
2022/12/09 09:29:21;;;;;;;20.45;6.82;;;;;;;13.53;98.64;97554.78;5046972;28;20490;-91
2022/12/09 09:31:48;;;;;;;;;;;;;;;13.79;98.46;97597.81;5044922;28;20045;-92
2022/12/09 09:34:19;;;;;;;18.70;6.13;;;;;;;13.69;98.62;97578.81;5045280;28;20023;-91
2022/12/09 09:36:44;;;;;;;23.50;7.60;;;;;;;13.55;99.10;97560.91;5042375;28;20056;-92
2022/12/09 09:39:15;;;;;;;14.20;5.43;;;;;;;13.57;99.08;97567.03;5048197;28;20469;-93
2022/12/09 09:41:46;;;;;;;16.25;5.88;;;;;;;13.56;99.09;97559.97;5046010;28;20451;-94
2022/12/09 09:44:21;;;;;;;19.52;6.28;;;;;;;13.77;99.23;97581.91;5043519;28;20497;-92
2022/12/09 09:46:48;;;;;;;18.30;5.78;;;;;;;13.65;99.67;97555.91;5040942;28;20049;-93
2022/12/09 09:49:18;;;;;;;23.13;6.57;;;;;;;13.70;99.35;97546.66;5058055;28;20079;-94
2022/12/09 09:51:46;;;;;;;20.80;6.38;;;;;;;13.70;99.99;97537.78;5058217;28;20075;-95
2022/12/09 09:54:15;;;;;;;24.90;6.35;;;;;;;13.97;100.00;97586.06;5059012;28;20065;-94
2022/12/09 09:56:50;;;;;;;21.70;7.10;;;;;;;13.82;99.35;97550.41;5047310;28;20068;-95
2022/12/09 09:59:49;;;;;;;19.60;6.25;;;;;;;13.79;98.69;97545.22;5058809;28;20052;-92
2022/12/09 10:02:17;;;;;;;21.55;6.57;;;;;;;13.90;98.20;97541.91;5036589;28;20060;-94
2022/12/09 10:05:04;;;;;;;23.38;7.60;;;;;;;13.85;98.98;97533.34;5038883;28;20041;-93
2022/12/09 10:07:37;;;;;;;21.15;6.20;;;;;;;13.92;99.07;97540.91;5039115;28;20053;-95
2022/12/09 10:10:15;;;;;;;18.05;5.85;;;;;;;13.95;99.34;97545.19;5057311;28;20045;-93
2022/12/09 10:12:58;;;;;;;22.27;6.40;;;;;;;14.07;99.04;97552.44;5053739;28;20053;-93
2022/12/09 10:15:32;;;;;;;20.33;6.00;;;;;;;13.97;98.28;97522.75;5040855;28;20041;-94
2022/12/09 10:18:15;;;;;;;17.17;5.97;;;;;;;14.00;98.34;97515.50;5040509;28;20037;-95
2022/12/09 10:20:44;;;;;;;17.50;6.65;;;;;;;14.07;98.88;97539.09;5052676;28;20539;-93
2022/12/09 10:23:15;;;;;;;19.42;6.43;;;;;;;13.97;98.89;97516.56;5051745;28;20049;-94
2022/12/09 10:25:47;;;;;;;18.70;5.55;;;;;;;13.94;98.77;97498.03;5042123;28;20049;-93
2022/12/09 10:28:23;;;;;;;20.77;6.47;;;;;;;14.03;98.61;97504.63;5040247;28;20041;-93
2022/12/09 10:30:59;;;;;;;18.55;6.47;;;;;;;14.07;99.21;97515.03;5046072;28;20038;-92
2022/12/09 10:33:59;;;;;;;129.82;78.20;;;;;;;14.10;98.73;97511.34;5058035;28;20033;-94
2022/12/09 10:36:49;;;;;;;79.15;33.78;;;;;;;14.09;98.74;97505.09;5042691;28;20041;-96
2022/12/09 10:39:39;;;;;;;27.70;12.48;;;;;;;14.22;98.76;97526.59;5046165;28;20845;-92
2022/12/09 10:45:17;;;;;;;46.67;24.90;;;;;;;14.09;100.00;97504.25;5106589;27;20376;-92
2022/12/09 10:47:51;;;;;;;18.85;9.68;;;;;;;13.97;100.00;97479.16;5074238;28;20049;-95
2022/12/09 10:50:42;;;;;;;29.38;14.70;;;;;;;13.99;100.00;97490.59;5072640;28;20037;-95
2022/12/09 10:53:17;;;;;;;24.20;13.98;;;;;;;14.10;100.00;97493.47;5063793;28;20158;-91
2022/12/09 10:56:01;;;;;;;26.85;15.95;;;;;;;13.97;100.00;97476.47;5073432;28;20045;-93
2022/12/09 10:58:31;;;;;;;34.63;20.30;;;;;;;13.94;100.00;97485.53;5073396;28;20036;-92
2022/12/09 11:07:17;;;;;;;25.50;9.13;;;;;;;13.82;100.00;97456.03;5057436;28;20044;-93
2022/12/09 11:09:46;;;;;;;23.50;10.68;;;;;;;13.85;100.00;97463.84;5074100;28;20040;-93
2022/12/09 11:12:31;;;;;;;27.07;11.63;;;;;;;14.00;100.00;97502.16;5074122;28;20051;-92
2022/12/09 11:15:23;;;;;;;27.67;10.85;;;;;;;13.95;100.00;97513.13;5074917;28;20285;-93
2022/12/09 11:18:06;;;;;;;26.92;10.68;;;;;;;13.95;100.00;97494.41;5070731;28;20041;-93
2022/12/09 11:20:58;;;;;;;15.82;7.53;;;;;;;13.97;100.00;97488.03;5073878;28;20433;-94
2022/12/09 11:23:27;;;;;;;21.13;11.88;;;;;;;13.97;100.00;97482.66;5073428;28;20122;-94
2022/12/09 11:25:58;;;;;;;22.77;8.63;;;;;;;13.96;100.00;97459.56;5073773;28;20036;-93
2022/12/09 11:28:28;;;;;;;19.07;8.27;;;;;;;13.98;100.00;97446.97;5073543;28;20048;-93
2022/12/09 11:31:24;;;;;;;27.25;13.85;;;;;;;13.96;100.00;97438.19;5074570;28;20036;-95
2022/12/09 11:34:21;;;;;;;22.13;11.13;;;;;;;13.92;100.00;97435.78;5073222;28;20069;-93
2022/12/09 11:36:53;;;;;;;21.25;8.38;;;;;;;14.08;100.00;97454.44;5067433;28;20505;-94
2022/12/09 11:39:27;;;;;;;19.13;7.57;;;;;;;13.95;100.00;97422.25;5071833;28;20102;-94
2022/12/09 11:45:20;;;;;;;21.27;7.85;;;;;;;13.98;100.00;97459.47;5136840;27;20380;-93
2022/12/09 11:47:52;;;;;;;19.15;7.63;;;;;;;13.75;100.00;97437.72;5136404;28;20403;-93
2022/12/09 11:50:31;;;;;;;22.80;7.25;;;;;;;13.67;100.00;97434.63;5137181;28;20047;-93
2022/12/09 11:53:23;;;;;;;23.40;7.65;;;;;;;13.85;100.00;97459.38;5135148;28;20050;-95